createdAt,value
2016-09-16T00:00:49.862Z,1001.53
2016-09-16T00:01:49.812Z,1001.51
2016-09-16T00:02:49.884Z,1001.49
2016-09-16T00:03:49.973Z,1001.5
2016-09-16T00:04:49.837Z,1001.53
2016-09-16T00:05:50.026Z,1001.52
2016-09-16T00:06:50.137Z,1001.54
2016-09-16T00:07:49.981Z,1001.6
2016-09-16T00:08:50.204Z,1001.64
2016-09-16T00:09:49.760Z,1001.61
2016-09-16T00:10:49.737Z,1001.61
2016-09-16T00:11:50.230Z,1001.57
2016-09-16T00:12:50.068Z,1001.54
2016-09-16T00:13:49.990Z,1001.5
2016-09-16T00:14:49.758Z,1001.51
2016-09-16T00:15:49.858Z,1001.55
2016-09-16T00:16:50.001Z,1001.55
2016-09-16T00:17:50.171Z,1001.56
2016-09-16T00:18:50.012Z,1001.53
2016-09-16T00:19:49.963Z,1001.46
2016-09-16T00:20:50.018Z,1001.52
2016-09-16T00:21:50.022Z,1001.47
2016-09-16T00:22:50.059Z,1001.51
2016-09-16T00:23:50.774Z,1001.53
2016-09-16T00:24:49.959Z,1001.57
2016-09-16T00:25:50.117Z,1001.58
2016-09-16T00:26:50.053Z,1001.6
2016-09-16T00:27:50.615Z,1001.56
2016-09-16T00:28:50.357Z,1001.55
2016-09-16T00:29:50.668Z,1001.56
2016-09-16T00:30:50.558Z,1001.61
2016-09-16T00:31:51.277Z,1001.6
2016-09-16T00:32:50.371Z,1001.61
2016-09-16T00:33:50.507Z,1001.54
2016-09-16T00:34:50.242Z,1001.58
2016-09-16T00:35:50.833Z,1001.6
2016-09-16T00:36:50.405Z,1001.62
2016-09-16T00:37:50.689Z,1001.62
2016-09-16T00:38:50.347Z,1001.62
2016-09-16T00:39:50.356Z,1001.68
2016-09-16T00:40:50.816Z,1001.7
2016-09-16T00:41:51.325Z,1001.72
2016-09-16T00:42:51.003Z,1001.76
2016-09-16T00:43:50.864Z,1001.78
2016-09-16T00:44:50.786Z,1001.76
2016-09-16T00:45:50.616Z,1001.76
2016-09-16T00:46:50.722Z,1001.73
2016-09-16T00:47:51.257Z,1001.73
2016-09-16T00:48:51.188Z,1001.71
2016-09-16T00:49:51.423Z,1001.75
2016-09-16T00:50:50.824Z,1001.73
2016-09-16T00:51:50.975Z,1001.64
2016-09-16T00:52:51.101Z,1001.64
2016-09-16T00:53:50.647Z,1001.64
2016-09-16T00:54:50.736Z,1001.65
2016-09-16T00:55:51.234Z,1001.7
2016-09-16T00:56:51.045Z,1001.68
2016-09-16T00:57:50.763Z,1001.7
2016-09-16T00:58:50.870Z,1001.7
2016-09-16T00:59:51.545Z,1001.71
2016-09-16T01:00:51.646Z,1001.7
2016-09-16T01:01:51.572Z,1001.69
2016-09-16T01:02:51.183Z,1001.7
2016-09-16T01:03:51.425Z,1001.73
2016-09-16T01:04:51.685Z,1001.69
2016-09-16T01:05:51.775Z,1001.69
2016-09-16T01:06:51.737Z,1001.74
2016-09-16T01:07:51.161Z,1001.7
2016-09-16T01:08:51.119Z,1001.66
2016-09-16T01:09:52.247Z,1001.63
2016-09-16T01:10:51.384Z,1001.64
2016-09-16T01:11:52.312Z,1001.63
2016-09-16T01:12:51.659Z,1001.67
2016-09-16T01:13:51.724Z,1001.7
2016-09-16T01:14:51.677Z,1001.69
2016-09-16T01:15:52.238Z,1001.67
2016-09-16T01:16:51.205Z,1001.71
2016-09-16T01:17:52.435Z,1001.76
2016-09-16T01:18:51.998Z,1001.81
2016-09-16T01:19:52.029Z,1001.84
2016-09-16T01:20:51.300Z,1001.84
2016-09-16T01:21:51.323Z,1001.89
2016-09-16T01:22:52.037Z,1001.88
2016-09-16T01:23:51.892Z,1001.94
2016-09-16T01:24:51.615Z,1001.95
2016-09-16T01:25:52.139Z,1001.91
2016-09-16T01:26:52.013Z,1001.94
2016-09-16T01:27:51.787Z,1001.94
2016-09-16T01:28:51.360Z,1001.92
2016-09-16T01:29:52.049Z,1001.92
2016-09-16T01:30:52.951Z,1001.88
2016-09-16T01:31:52.089Z,1001.8
2016-09-16T01:32:51.595Z,1001.78
2016-09-16T01:33:51.630Z,1001.78
2016-09-16T01:34:51.864Z,1001.8
2016-09-16T01:35:51.739Z,1001.83
2016-09-16T01:36:51.600Z,1001.89
2016-09-16T01:37:51.878Z,1001.87
2016-09-16T01:38:52.671Z,1001.86
2016-09-16T01:39:52.052Z,1001.89
2016-09-16T01:40:52.231Z,1001.87
2016-09-16T01:41:52.758Z,1001.9
2016-09-16T01:42:52.515Z,1001.93
2016-09-16T01:43:52.197Z,1001.91
2016-09-16T01:44:52.247Z,1001.88
2016-09-16T01:45:52.001Z,1001.85
2016-09-16T01:46:52.104Z,1001.82
2016-09-16T01:47:52.346Z,1001.82
2016-09-16T01:48:52.744Z,1001.77
2016-09-16T01:49:51.921Z,1001.79
2016-09-16T01:50:51.849Z,1001.78
2016-09-16T01:51:52.892Z,1001.8
2016-09-16T01:52:52.084Z,1001.78
2016-09-16T01:53:51.858Z,1001.85
2016-09-16T01:54:52.258Z,1001.86
2016-09-16T01:55:52.072Z,1001.92
2016-09-16T01:56:52.753Z,1001.96
2016-09-16T01:57:52.463Z,1002.01
2016-09-16T01:58:52.794Z,1001.96
2016-09-16T01:59:52.546Z,1001.95
2016-09-16T02:00:52.659Z,1001.91
2016-09-16T02:01:51.981Z,1001.96
2016-09-16T02:02:52.100Z,1001.91
2016-09-16T02:03:52.455Z,1002
2016-09-16T02:04:52.276Z,1002.02
2016-09-16T02:05:52.424Z,1002.07
2016-09-16T02:06:52.734Z,1002.08
2016-09-16T02:07:52.675Z,1002.06
2016-09-16T02:08:52.488Z,1002.05
2016-09-16T02:09:52.308Z,1002.02
2016-09-16T02:10:52.473Z,1002.08
2016-09-16T02:11:52.747Z,1002.07
2016-09-16T02:12:52.416Z,1002.1
2016-09-16T02:13:52.975Z,1002.14
2016-09-16T02:14:52.405Z,1002.18
2016-09-16T02:15:52.677Z,1002.17
2016-09-16T02:16:53.661Z,1002.14
2016-09-16T02:17:53.873Z,1002.11
2016-09-16T02:18:52.960Z,1002.09
2016-09-16T02:19:53.564Z,1002.09
2016-09-16T02:20:52.681Z,1002.07
2016-09-16T02:21:53.220Z,1002.05
2016-09-16T02:22:52.565Z,1002.03
2016-09-16T02:23:52.594Z,1002.03
2016-09-16T02:24:52.838Z,1002.06
2016-09-16T02:25:52.727Z,1002.08
2016-09-16T02:26:52.972Z,1002.07
2016-09-16T02:27:52.872Z,1002.07
2016-09-16T02:28:52.917Z,1002.03
2016-09-16T02:29:52.704Z,1002.02
2016-09-16T02:30:52.805Z,1001.97
2016-09-16T02:31:52.996Z,1002.01
2016-09-16T02:32:53.213Z,1001.99
2016-09-16T02:33:52.907Z,1001.97
2016-09-16T02:34:53.882Z,1001.98
2016-09-16T02:35:53.229Z,1002
2016-09-16T02:36:52.957Z,1001.98
2016-09-16T02:37:53.174Z,1001.96
2016-09-16T02:38:53.327Z,1001.96
2016-09-16T02:39:52.965Z,1001.96
2016-09-16T02:40:53.700Z,1001.97
2016-09-16T02:41:53.469Z,1001.92
2016-09-16T02:42:53.650Z,1001.98
2016-09-16T02:43:52.889Z,1001.98
2016-09-16T02:44:54.224Z,1002.02
2016-09-16T02:45:53.158Z,1002.05
2016-09-16T02:46:53.292Z,1002.12
2016-09-16T02:47:53.100Z,1002.13
2016-09-16T02:48:53.863Z,1002.14
2016-09-16T02:49:53.601Z,1002.19
2016-09-16T02:50:53.569Z,1002.25
2016-09-16T02:51:53.581Z,1002.23
2016-09-16T02:52:53.198Z,1002.21
2016-09-16T02:53:53.210Z,1002.18
2016-09-16T02:54:53.221Z,1002.16
2016-09-16T02:55:53.925Z,1002.19
2016-09-16T02:56:53.544Z,1002.14
2016-09-16T02:57:53.392Z,1002.15
2016-09-16T02:58:53.392Z,1002.11
2016-09-16T02:59:53.361Z,1002.1
2016-09-16T03:00:53.772Z,1002.12
2016-09-16T03:01:54.209Z,1002.09
2016-09-16T03:02:53.595Z,1002.1
2016-09-16T03:03:53.739Z,1002.14
2016-09-16T03:04:53.433Z,1002.14
2016-09-16T03:05:53.839Z,1002.19
2016-09-16T03:06:53.334Z,1002.19
2016-09-16T03:07:53.739Z,1002.23
2016-09-16T03:08:53.699Z,1002.23
2016-09-16T03:09:53.830Z,1002.27
2016-09-16T03:10:54.337Z,1002.26
2016-09-16T03:11:53.828Z,1002.23
2016-09-16T03:12:53.777Z,1002.23
2016-09-16T03:13:53.998Z,1002.2
2016-09-16T03:14:53.516Z,1002.18
2016-09-16T03:15:54.287Z,1002.2
2016-09-16T03:16:54.233Z,1002.18
2016-09-16T03:17:53.814Z,1002.24
2016-09-16T03:18:53.785Z,1002.18
2016-09-16T03:19:54.424Z,1002.19
2016-09-16T03:20:54.076Z,1002.25
2016-09-16T03:21:53.911Z,1002.22
2016-09-16T03:22:53.778Z,1002.24
2016-09-16T03:23:53.752Z,1002.26
2016-09-16T03:24:54.239Z,1002.27
2016-09-16T03:25:54.212Z,1002.28
2016-09-16T03:26:53.877Z,1002.3
2016-09-16T03:27:54.822Z,1002.29
2016-09-16T03:28:54.279Z,1002.31
2016-09-16T03:29:54.479Z,1002.34
2016-09-16T03:30:54.344Z,1002.36
2016-09-16T03:31:53.893Z,1002.37
2016-09-16T03:32:54.376Z,1002.36
2016-09-16T03:33:54.198Z,1002.37
2016-09-16T03:34:54.044Z,1002.38
2016-09-16T03:35:55.400Z,1002.4
2016-09-16T03:36:54.154Z,1002.43
2016-09-16T03:37:54.074Z,1002.43
2016-09-16T03:38:54.475Z,1002.49
2016-09-16T03:39:54.652Z,1002.48
2016-09-16T03:40:54.689Z,1002.46
2016-09-16T03:41:54.435Z,1002.46
2016-09-16T03:42:54.297Z,1002.47
2016-09-16T03:43:54.311Z,1002.45
2016-09-16T03:44:54.613Z,1002.47
2016-09-16T03:45:55.050Z,1002.44
2016-09-16T03:46:55.957Z,1002.46
2016-09-16T03:47:54.393Z,1002.48
2016-09-16T03:48:54.287Z,1002.49
2016-09-16T03:49:54.397Z,1002.53
2016-09-16T03:50:54.379Z,1002.5
2016-09-16T03:51:55.019Z,1002.51
2016-09-16T03:52:54.988Z,1002.49
2016-09-16T03:53:55.211Z,1002.5
2016-09-16T03:54:54.914Z,1002.52
2016-09-16T03:55:54.877Z,1002.54
2016-09-16T03:56:54.623Z,1002.56
2016-09-16T03:57:55.207Z,1002.54
2016-09-16T03:58:54.684Z,1002.57
2016-09-16T03:59:54.719Z,1002.57
2016-09-16T04:00:54.719Z,1002.6
2016-09-16T04:01:55.109Z,1002.61
2016-09-16T04:02:54.914Z,1002.55
2016-09-16T04:03:55.301Z,1002.56
2016-09-16T04:04:55.160Z,1002.59
2016-09-16T04:05:55.627Z,1002.59
2016-09-16T04:06:54.894Z,1002.6
2016-09-16T04:07:55.028Z,1002.62
2016-09-16T04:08:54.733Z,1002.65
2016-09-16T04:09:55.011Z,1002.63
2016-09-16T04:10:55.045Z,1002.62
2016-09-16T04:11:55.114Z,1002.64
2016-09-16T04:12:55.732Z,1002.6
2016-09-16T04:13:54.671Z,1002.62
2016-09-16T04:14:55.377Z,1002.64
2016-09-16T04:15:55.055Z,1002.57
2016-09-16T04:16:55.465Z,1002.62
2016-09-16T04:17:55.270Z,1002.6
2016-09-16T04:18:54.977Z,1002.56
2016-09-16T04:19:55.190Z,1002.56
2016-09-16T04:20:55.157Z,1002.56
2016-09-16T04:21:56.326Z,1002.54
2016-09-16T04:22:55.309Z,1002.49
2016-09-16T04:23:55.339Z,1002.48
2016-09-16T04:24:55.421Z,1002.47
2016-09-16T04:25:55.169Z,1002.44
2016-09-16T04:26:55.527Z,1002.4
2016-09-16T04:27:55.240Z,1002.34
2016-09-16T04:28:55.639Z,1002.33
2016-09-16T04:29:56.747Z,1002.31
2016-09-16T04:30:55.803Z,1002.33
2016-09-16T04:31:55.156Z,1002.34
2016-09-16T04:32:56.207Z,1002.34
2016-09-16T04:33:55.352Z,1002.37
2016-09-16T04:34:57.385Z,1002.4
2016-09-16T04:35:55.359Z,1002.43
2016-09-16T04:36:55.598Z,1002.42
2016-09-16T04:37:55.633Z,1002.41
2016-09-16T04:38:55.223Z,1002.4
2016-09-16T04:39:55.564Z,1002.41
2016-09-16T04:40:56.572Z,1002.45
2016-09-16T04:41:55.786Z,1002.43
2016-09-16T04:42:55.708Z,1002.47
2016-09-16T04:43:55.719Z,1002.49
2016-09-16T04:44:55.949Z,1002.55
2016-09-16T04:45:56.452Z,1002.54
2016-09-16T04:46:56.781Z,1002.57
2016-09-16T04:47:55.866Z,1002.64
2016-09-16T04:48:55.826Z,1002.64
2016-09-16T04:49:55.788Z,1002.68
2016-09-16T04:50:56.820Z,1002.64
2016-09-16T04:51:56.308Z,1002.66
2016-09-16T04:52:55.731Z,1002.67
2016-09-16T04:53:55.904Z,1002.68
2016-09-16T04:54:56.998Z,1002.7
2016-09-16T04:55:57.065Z,1002.75
2016-09-16T04:56:56.416Z,1002.74
2016-09-16T04:57:56.186Z,1002.77
2016-09-16T04:58:56.295Z,1002.81
2016-09-16T04:59:56.958Z,1002.83
2016-09-16T05:00:56.524Z,1002.83
2016-09-16T05:01:55.842Z,1002.85
2016-09-16T05:02:56.587Z,1002.86
2016-09-16T05:03:56.590Z,1002.86
2016-09-16T05:04:57.581Z,1002.87
2016-09-16T05:05:56.831Z,1002.91
2016-09-16T05:06:56.561Z,1002.96
2016-09-16T05:07:55.935Z,1003
2016-09-16T05:08:56.681Z,1003.04
2016-09-16T05:09:56.475Z,1003.06
2016-09-16T05:10:57.275Z,1003.06
2016-09-16T05:11:56.661Z,1003.14
2016-09-16T05:12:56.393Z,1003.15
2016-09-16T05:13:57.884Z,1003.17
2016-09-16T05:14:56.347Z,1003.16
2016-09-16T05:15:56.506Z,1003.16
2016-09-16T05:16:56.287Z,1003.16
2016-09-16T05:17:56.620Z,1003.18
2016-09-16T05:18:57.002Z,1003.15
2016-09-16T05:19:56.588Z,1003.15
2016-09-16T05:20:57.031Z,1003.15
2016-09-16T05:21:57.752Z,1003.09
2016-09-16T05:22:57.067Z,1003.12
2016-09-16T05:23:56.629Z,1003.15
2016-09-16T05:24:58.070Z,1003.14
2016-09-16T05:25:56.719Z,1003.15
2016-09-16T05:26:56.781Z,1003.12
2016-09-16T05:27:56.866Z,1003.09
2016-09-16T05:28:56.837Z,1003.09
2016-09-16T05:29:57.081Z,1003.08
2016-09-16T05:30:57.045Z,1003.12
2016-09-16T05:31:56.679Z,1003.1
2016-09-16T05:32:56.749Z,1003.09
2016-09-16T05:33:56.553Z,1003.11
2016-09-16T05:34:56.569Z,1003.11
2016-09-16T05:35:57.245Z,1003.09
2016-09-16T05:36:56.698Z,1003.12
2016-09-16T05:37:57.332Z,1003.1
2016-09-16T05:38:57.688Z,1003.08
2016-09-16T05:39:56.805Z,1003.13
2016-09-16T05:40:57.188Z,1003.09
2016-09-16T05:41:57.023Z,1003.08
2016-09-16T05:42:56.806Z,1003.06
2016-09-16T05:43:56.912Z,1003.05
2016-09-16T05:44:56.867Z,1003.05
2016-09-16T05:45:57.799Z,1003.07
2016-09-16T05:46:57.291Z,1003.08
2016-09-16T05:47:57.397Z,1003.08
2016-09-16T05:48:56.855Z,1003.06
2016-09-16T05:49:57.614Z,1003.12
2016-09-16T05:50:58.455Z,1003.12
2016-09-16T05:51:57.438Z,1003.13
2016-09-16T05:52:58.686Z,1003.16
2016-09-16T05:53:57.899Z,1003.14
2016-09-16T05:54:57.868Z,1003.15
2016-09-16T05:55:57.946Z,1003.2
2016-09-16T05:56:57.264Z,1003.2
2016-09-16T05:57:57.936Z,1003.22
2016-09-16T05:58:58.623Z,1003.23
2016-09-16T05:59:57.307Z,1003.24
2016-09-16T06:00:57.885Z,1003.21
2016-09-16T06:01:57.450Z,1003.21
2016-09-16T06:02:57.361Z,1003.21
2016-09-16T06:03:57.598Z,1003.21
2016-09-16T06:04:57.356Z,1003.23
2016-09-16T06:05:58.272Z,1003.2
2016-09-16T06:06:57.972Z,1003.19
2016-09-16T06:07:57.677Z,1003.16
2016-09-16T06:08:58.160Z,1003.19
2016-09-16T06:09:58.002Z,1003.19
2016-09-16T06:10:57.422Z,1003.18
2016-09-16T06:11:57.616Z,1003.17
2016-09-16T06:12:58.146Z,1003.22
2016-09-16T06:13:57.872Z,1003.23
2016-09-16T06:14:57.484Z,1003.24
2016-09-16T06:15:57.637Z,1003.22
2016-09-16T06:16:57.646Z,1003.23
2016-09-16T06:17:58.067Z,1003.25
2016-09-16T06:18:58.063Z,1003.29
2016-09-16T06:19:58.294Z,1003.26
2016-09-16T06:20:57.640Z,1003.31
2016-09-16T06:21:58.361Z,1003.37
2016-09-16T06:22:57.906Z,1003.42
2016-09-16T06:23:58.333Z,1003.45
2016-09-16T06:24:58.203Z,1003.51
2016-09-16T06:25:58.069Z,1003.51
2016-09-16T06:26:57.437Z,1003.54
2016-09-16T06:27:57.577Z,1003.56
2016-09-16T06:28:58.362Z,1003.5
2016-09-16T06:29:58.735Z,1003.5
2016-09-16T06:30:58.092Z,1003.51
2016-09-16T06:31:58.078Z,1003.49
2016-09-16T06:32:58.034Z,1003.46
2016-09-16T06:33:58.247Z,1003.47
2016-09-16T06:34:57.927Z,1003.47
2016-09-16T06:35:57.894Z,1003.47
2016-09-16T06:36:58.094Z,1003.46
2016-09-16T06:37:57.897Z,1003.53
2016-09-16T06:38:58.082Z,1003.51
2016-09-16T06:39:58.183Z,1003.52
2016-09-16T06:40:58.128Z,1003.5
2016-09-16T06:41:58.159Z,1003.53
2016-09-16T06:42:58.134Z,1003.52
2016-09-16T06:43:58.066Z,1003.52
2016-09-16T06:44:58.187Z,1003.55
2016-09-16T06:45:58.268Z,1003.56
2016-09-16T06:46:58.377Z,1003.56
2016-09-16T06:47:58.023Z,1003.52
2016-09-16T06:48:58.931Z,1003.52
2016-09-16T06:49:58.114Z,1003.49
2016-09-16T06:50:58.033Z,1003.44
2016-09-16T06:51:58.397Z,1003.4
2016-09-16T06:52:58.287Z,1003.39
2016-09-16T06:53:58.428Z,1003.37
2016-09-16T06:54:58.200Z,1003.39
2016-09-16T06:55:58.369Z,1003.46
2016-09-16T06:56:58.614Z,1003.48
2016-09-16T06:57:58.564Z,1003.47
2016-09-16T06:58:58.277Z,1003.46
2016-09-16T06:59:58.896Z,1003.45
2016-09-16T07:00:58.837Z,1003.43
2016-09-16T07:01:58.448Z,1003.46
2016-09-16T07:02:58.611Z,1003.48
2016-09-16T07:03:59.259Z,1003.47
2016-09-16T07:04:59.469Z,1003.42
2016-09-16T07:05:59.246Z,1003.45
2016-09-16T07:06:58.729Z,1003.43
2016-09-16T07:07:58.845Z,1003.41
2016-09-16T07:08:58.450Z,1003.37
2016-09-16T07:09:58.671Z,1003.37
2016-09-16T07:10:58.870Z,1003.34
2016-09-16T07:11:59.437Z,1003.37
2016-09-16T07:12:58.698Z,1003.34
2016-09-16T07:13:59.117Z,1003.34
2016-09-16T07:14:59.622Z,1003.33
2016-09-16T07:15:59.001Z,1003.32
2016-09-16T07:16:58.981Z,1003.32
2016-09-16T07:17:58.855Z,1003.27
2016-09-16T07:18:58.797Z,1003.26
2016-09-16T07:19:58.836Z,1003.24
2016-09-16T07:20:59.023Z,1003.28
2016-09-16T07:21:59.179Z,1003.29
2016-09-16T07:22:59.172Z,1003.31
2016-09-16T07:23:59.204Z,1003.29
2016-09-16T07:24:59.071Z,1003.27
2016-09-16T07:25:59.073Z,1003.26
2016-09-16T07:26:59.143Z,1003.27
2016-09-16T07:27:59.277Z,1003.28
2016-09-16T07:28:58.940Z,1003.36
2016-09-16T07:29:59.526Z,1003.46
2016-09-16T07:30:59.115Z,1003.38
2016-09-16T07:31:59.281Z,1003.3
2016-09-16T07:32:59.281Z,1003.28
2016-09-16T07:33:59.552Z,1003.29
2016-09-16T07:34:59.481Z,1003.33
2016-09-16T07:35:59.244Z,1003.53
2016-09-16T07:36:59.378Z,1003.54
2016-09-16T07:37:59.588Z,1003.48
2016-09-16T07:38:59.377Z,1003.42
2016-09-16T07:39:59.407Z,1003.44
2016-09-16T07:41:00.036Z,1003.42
2016-09-16T07:42:00.750Z,1003.47
2016-09-16T07:42:59.324Z,1003.46
2016-09-16T07:43:59.572Z,1003.42
2016-09-16T07:44:59.188Z,1003.4
2016-09-16T07:45:59.569Z,1003.34
2016-09-16T07:46:59.317Z,1003.33
2016-09-16T07:47:59.795Z,1003.3
2016-09-16T07:48:59.634Z,1003.29
2016-09-16T07:50:00.543Z,1003.29
2016-09-16T07:51:00.681Z,1003.29
2016-09-16T07:51:59.893Z,1003.3
2016-09-16T07:53:00.262Z,1003.28
2016-09-16T07:53:59.438Z,1003.34
2016-09-16T07:54:59.738Z,1003.33
2016-09-16T07:55:59.779Z,1003.32
2016-09-16T07:57:00.230Z,1003.37
2016-09-16T07:57:59.751Z,1003.36
2016-09-16T07:58:59.790Z,1003.36
2016-09-16T07:59:59.823Z,1003.39
2016-09-16T08:00:59.926Z,1003.37
2016-09-16T08:02:00.010Z,1003.41
2016-09-16T08:02:59.965Z,1003.4
2016-09-16T08:04:00.930Z,1003.44
2016-09-16T08:05:00.684Z,1003.44
2016-09-16T08:05:59.817Z,1003.46
2016-09-16T08:07:00.223Z,1003.47
2016-09-16T08:08:00.142Z,1003.48
2016-09-16T08:09:00.267Z,1003.48
2016-09-16T08:10:00.298Z,1003.47
2016-09-16T08:11:01.014Z,1003.49
2016-09-16T08:12:00.038Z,1003.45
2016-09-16T08:13:00.909Z,1003.47
2016-09-16T08:13:59.888Z,1003.49
2016-09-16T08:15:00.442Z,1003.47
2016-09-16T08:16:01.006Z,1003.51
2016-09-16T08:17:00.262Z,1003.53
2016-09-16T08:18:00.134Z,1003.59
2016-09-16T08:19:00.192Z,1003.58
2016-09-16T08:20:00.771Z,1003.57
2016-09-16T08:21:00.566Z,1003.6
2016-09-16T08:22:00.764Z,1003.59
2016-09-16T08:23:00.403Z,1003.6
2016-09-16T08:24:00.250Z,1003.63
2016-09-16T08:25:00.149Z,1003.61
2016-09-16T08:26:00.262Z,1003.6
2016-09-16T08:27:00.689Z,1003.62
2016-09-16T08:28:00.255Z,1003.61
2016-09-16T08:29:01.097Z,1003.61
2016-09-16T08:30:00.748Z,1003.61
2016-09-16T08:31:00.404Z,1003.6
2016-09-16T08:32:00.886Z,1003.64
2016-09-16T08:33:01.713Z,1003.67
2016-09-16T08:34:00.757Z,1003.6
2016-09-16T08:35:00.629Z,1003.63
2016-09-16T08:36:00.627Z,1003.64
2016-09-16T08:37:00.527Z,1003.59
2016-09-16T08:38:00.965Z,1003.6
2016-09-16T08:39:00.823Z,1003.64
2016-09-16T08:40:00.840Z,1003.62
2016-09-16T08:41:00.884Z,1003.59
2016-09-16T08:42:00.904Z,1003.59
2016-09-16T08:43:00.569Z,1003.59
2016-09-16T08:44:01.452Z,1003.57
2016-09-16T08:45:01.491Z,1003.54
2016-09-16T08:46:01.015Z,1003.56
2016-09-16T08:47:01.457Z,1003.55
2016-09-16T08:48:00.895Z,1003.57
2016-09-16T08:49:00.886Z,1003.62
2016-09-16T08:50:01.129Z,1003.61
2016-09-16T08:51:00.917Z,1003.61
2016-09-16T08:52:01.067Z,1003.58
2016-09-16T08:53:00.995Z,1003.59
2016-09-16T08:54:01.332Z,1003.6
2016-09-16T08:55:00.996Z,1003.62
2016-09-16T08:56:01.008Z,1003.66
2016-09-16T08:57:01.426Z,1003.68
2016-09-16T08:58:01.780Z,1003.64
2016-09-16T08:59:01.268Z,1003.66
2016-09-16T09:00:01.424Z,1003.64
2016-09-16T09:01:01.100Z,1003.63
2016-09-16T09:02:01.307Z,1003.67
2016-09-16T09:03:01.423Z,1003.63
2016-09-16T09:04:01.612Z,1003.58
2016-09-16T09:05:01.525Z,1003.6
2016-09-16T09:06:01.606Z,1003.57
2016-09-16T09:07:01.285Z,1003.58
2016-09-16T09:08:01.745Z,1003.57
2016-09-16T09:09:01.657Z,1003.58
2016-09-16T09:10:01.653Z,1003.6
2016-09-16T09:11:01.748Z,1003.58
2016-09-16T09:12:01.398Z,1003.57
2016-09-16T09:13:01.604Z,1003.5
2016-09-16T09:14:01.489Z,1003.43
2016-09-16T09:15:01.292Z,1003.42
2016-09-16T09:16:01.755Z,1003.43
2016-09-16T09:17:01.654Z,1003.46
2016-09-16T09:18:02.187Z,1003.48
2016-09-16T09:19:01.625Z,1003.52
2016-09-16T09:20:01.554Z,1003.55
2016-09-16T09:21:01.493Z,1003.63
2016-09-16T09:22:01.746Z,1003.63
2016-09-16T09:23:01.937Z,1003.6
2016-09-16T09:24:01.592Z,1003.6
2016-09-16T09:25:01.724Z,1003.61
2016-09-16T09:26:02.111Z,1003.6
2016-09-16T09:27:01.684Z,1003.66
2016-09-16T09:28:02.476Z,1003.62
2016-09-16T09:29:02.431Z,1003.6
2016-09-16T09:30:02.228Z,1003.6
2016-09-16T09:31:01.959Z,1003.58
2016-09-16T09:32:02.148Z,1003.56
2016-09-16T09:33:02.208Z,1003.54
2016-09-16T09:34:02.455Z,1003.51
2016-09-16T09:35:02.431Z,1003.47
2016-09-16T09:36:02.247Z,1003.48
2016-09-16T09:37:02.507Z,1003.47
2016-09-16T09:38:02.972Z,1003.45
2016-09-16T09:39:03.252Z,1003.4
2016-09-16T09:40:02.252Z,1003.39
2016-09-16T09:41:04.123Z,1003.41
2016-09-16T09:42:03.246Z,1003.39
2016-09-16T09:43:02.400Z,1003.42
2016-09-16T09:44:02.818Z,1003.43
2016-09-16T09:45:02.173Z,1003.41
2016-09-16T09:46:01.985Z,1003.35
2016-09-16T09:47:02.791Z,1003.32
2016-09-16T09:48:02.251Z,1003.28
2016-09-16T09:49:02.799Z,1003.27
2016-09-16T09:50:02.428Z,1003.26
2016-09-16T09:51:02.491Z,1003.29
2016-09-16T09:52:02.509Z,1003.24
2016-09-16T09:53:02.883Z,1003.21
2016-09-16T09:54:02.557Z,1003.26
2016-09-16T09:55:02.453Z,1003.21
2016-09-16T09:56:02.793Z,1003.23
2016-09-16T09:57:02.362Z,1003.24
2016-09-16T09:58:02.557Z,1003.24
2016-09-16T09:59:02.475Z,1003.25
2016-09-16T10:00:02.619Z,1003.2
2016-09-16T10:01:02.563Z,1003.21
2016-09-16T10:02:02.518Z,1003.22
2016-09-16T10:03:02.991Z,1003.23
2016-09-16T10:04:02.732Z,1003.25
2016-09-16T10:05:03.267Z,1003.24
2016-09-16T10:06:03.108Z,1003.19
2016-09-16T10:07:02.945Z,1003.18
2016-09-16T10:08:03.162Z,1003.15
2016-09-16T10:09:03.012Z,1003.17
2016-09-16T10:10:04.039Z,1003.18
2016-09-16T10:11:02.817Z,1003.1
2016-09-16T10:12:02.915Z,1003.13
2016-09-16T10:13:03.389Z,1003.1
2016-09-16T10:14:02.956Z,1003.09
2016-09-16T10:15:02.998Z,1003.09
2016-09-16T10:16:03.181Z,1003.07
2016-09-16T10:17:03.430Z,1003.06
2016-09-16T10:18:04.169Z,1003.08
2016-09-16T10:19:03.943Z,1003.1
2016-09-16T10:20:02.978Z,1003.08
2016-09-16T10:21:03.987Z,1003.03
2016-09-16T10:22:03.463Z,1003
2016-09-16T10:23:03.304Z,1003.03
2016-09-16T10:24:03.045Z,1002.98
2016-09-16T10:25:03.203Z,1002.95
2016-09-16T10:26:03.032Z,1002.99
2016-09-16T10:27:03.625Z,1003.02
2016-09-16T10:28:03.454Z,1003.04
2016-09-16T10:29:03.814Z,1003.15
2016-09-16T10:30:04.092Z,1003.08
2016-09-16T10:31:03.331Z,1003.18
2016-09-16T10:32:03.429Z,1003.22
2016-09-16T10:33:03.961Z,1003.26
2016-09-16T10:34:04.363Z,1003.28
2016-09-16T10:35:03.443Z,1003.32
2016-09-16T10:36:03.775Z,1003.31
2016-09-16T10:37:03.645Z,1003.27
2016-09-16T10:38:03.815Z,1003.31
2016-09-16T10:39:03.864Z,1003.31
2016-09-16T10:40:03.721Z,1003.3
2016-09-16T10:41:03.596Z,1003.29
2016-09-16T10:42:03.669Z,1003.33
2016-09-16T10:43:03.692Z,1003.34
2016-09-16T10:44:04.231Z,1003.34
2016-09-16T10:45:04.204Z,1003.36
2016-09-16T10:46:04.464Z,1003.35
2016-09-16T10:47:04.368Z,1003.37
2016-09-16T10:48:04.245Z,1003.35
2016-09-16T10:49:04.230Z,1003.27
2016-09-16T10:50:04.515Z,1003.25
2016-09-16T10:51:04.751Z,1003.19
2016-09-16T10:52:03.996Z,1003.2
2016-09-16T10:53:04.192Z,1003.17
2016-09-16T10:54:04.167Z,1003.13
2016-09-16T10:55:04.223Z,1003.14
2016-09-16T10:56:04.264Z,1003.12
2016-09-16T10:57:04.041Z,1003.12
2016-09-16T10:58:04.856Z,1003.11
2016-09-16T10:59:04.536Z,1003.13
2016-09-16T11:00:04.102Z,1003.14
2016-09-16T11:01:04.605Z,1003.16
2016-09-16T11:02:04.547Z,1003.2
2016-09-16T11:03:04.246Z,1003.23
2016-09-16T11:04:05.735Z,1003.27
2016-09-16T11:05:04.843Z,1003.31
2016-09-16T11:06:04.843Z,1003.29
2016-09-16T11:07:04.517Z,1003.32
2016-09-16T11:08:04.699Z,1003.29
2016-09-16T11:09:04.992Z,1003.31
2016-09-16T11:10:05.046Z,1003.32
2016-09-16T11:11:04.445Z,1003.39
2016-09-16T11:12:04.874Z,1003.4
2016-09-16T11:13:04.552Z,1003.4
2016-09-16T11:14:04.222Z,1003.41
2016-09-16T11:15:04.399Z,1003.46
2016-09-16T11:16:05.072Z,1003.36
2016-09-16T11:17:04.655Z,1003.29
2016-09-16T11:18:04.543Z,1003.24
2016-09-16T11:19:04.870Z,1003.16
2016-09-16T11:20:04.966Z,1003.12
2016-09-16T11:21:04.747Z,1003.09
2016-09-16T11:22:05.058Z,1003.16
2016-09-16T11:23:05.400Z,1003.16
2016-09-16T11:24:04.777Z,1003.18
2016-09-16T11:25:04.957Z,1003.1
2016-09-16T11:26:04.822Z,1003.07
2016-09-16T11:27:05.099Z,1003.04
2016-09-16T11:28:04.652Z,1003.11
2016-09-16T11:29:04.879Z,1003.01
2016-09-16T11:30:04.943Z,1002.95
2016-09-16T11:31:04.909Z,1002.86
2016-09-16T11:32:05.108Z,1002.9
2016-09-16T11:33:05.262Z,1002.86
2016-09-16T11:34:05.358Z,1002.81
2016-09-16T11:35:04.921Z,1002.79
2016-09-16T11:36:05.000Z,1002.86
2016-09-16T11:37:05.031Z,1002.86
2016-09-16T11:38:05.203Z,1002.87
2016-09-16T11:39:05.453Z,1002.9
2016-09-16T11:40:05.145Z,1002.94
2016-09-16T11:41:05.081Z,1002.92
2016-09-16T11:42:05.164Z,1002.88
2016-09-16T11:43:05.516Z,1002.87
2016-09-16T11:44:05.257Z,1002.85
2016-09-16T11:45:05.235Z,1002.79
2016-09-16T11:46:05.706Z,1002.86
2016-09-16T11:47:05.705Z,1002.86
2016-09-16T11:48:05.868Z,1002.86
2016-09-16T11:49:05.306Z,1002.88
2016-09-16T11:50:05.802Z,1002.87
2016-09-16T11:51:05.649Z,1002.89
2016-09-16T11:52:05.480Z,1002.91
2016-09-16T11:53:05.726Z,1002.91
2016-09-16T11:54:05.682Z,1002.89
2016-09-16T11:55:05.738Z,1002.89
2016-09-16T11:56:05.857Z,1002.82
2016-09-16T11:57:06.515Z,1002.85
2016-09-16T11:58:05.801Z,1002.82
2016-09-16T11:59:06.481Z,1002.85
2016-09-16T12:00:05.979Z,1002.85
2016-09-16T12:01:06.022Z,1002.87
2016-09-16T12:02:06.099Z,1002.88
2016-09-16T12:03:05.833Z,1002.86
2016-09-16T12:04:06.016Z,1002.85
2016-09-16T12:05:05.797Z,1002.81
2016-09-16T12:06:06.149Z,1002.82
2016-09-16T12:07:06.084Z,1002.82
2016-09-16T12:08:05.868Z,1002.84
2016-09-16T12:09:05.975Z,1002.79